Time;durP1;ratioP1;P1;durP2;ratioP2;P2;SDS_P1;SDS_P2;PMS_P1;PMS_P2;Temp;Humidity;BMP_temperature;BMP_pressure;BME280_temperature;BME280_humidity;BME280_pressure;Samples;Min_cycle;Max_cycle;Signal;HPM_P1;HPM_P2
2023/11/08 00:02:09;;;;;;;12.20;7.20;;;8.70;99.90;;;;;;5071921;28;20441;-71
2023/11/08 00:04:35;;;;;;;10.27;6.57;;;8.70;99.90;;;;;;5066862;28;20032;-72
2023/11/08 00:07:01;;;;;;;13.15;7.15;;;8.70;99.90;;;;;;5067801;28;20043;-71
2023/11/08 00:09:26;;;;;;;8.82;6.93;;;8.70;99.90;;;;;;5069666;28;20090;-71
2023/11/08 00:11:52;;;;;;;10.38;7.53;;;8.70;99.90;;;;;;5069771;28;20068;-71
2023/11/08 00:14:17;;;;;;;12.05;8.15;;;8.70;99.90;;;;;;5100134;28;20043;-71
2023/11/08 00:16:43;;;;;;;10.07;8.75;;;8.70;99.90;;;;;;5069034;28;20495;-71
2023/11/08 00:19:08;;;;;;;11.85;8.75;;;8.70;99.90;;;;;;5067248;28;20032;-71
2023/11/08 00:21:35;;;;;;;14.60;9.05;;;8.70;99.90;;;;;;5068107;28;20496;-71
2023/11/08 00:24:02;;;;;;;11.55;8.90;;;8.70;99.90;;;;;;5069045;28;20040;-71
2023/11/08 00:26:27;;;;;;;18.00;9.55;;;8.70;99.90;;;;;;5067724;28;20136;-71
2023/11/08 00:28:53;;;;;;;14.50;9.45;;;8.70;99.90;;;;;;5065871;28;20146;-71
2023/11/08 00:31:20;;;;;;;11.85;9.05;;;8.70;99.90;;;;;;5067939;28;20036;-71
2023/11/08 00:33:45;;;;;;;11.23;9.10;;;8.70;99.90;;;;;;5068003;28;20047;-71
2023/11/08 00:36:11;;;;;;;11.25;8.70;;;8.70;99.90;;;;;;5067518;28;20040;-72
2023/11/08 00:38:38;;;;;;;13.07;8.23;;;8.70;99.90;;;;;;5065936;28;20068;-71
2023/11/08 00:41:04;;;;;;;10.77;8.68;;;8.70;99.90;;;;;;5066678;28;20047;-72
2023/11/08 00:43:30;;;;;;;11.73;9.20;;;8.70;99.90;;;;;;5067966;28;20032;-72
2023/11/08 00:45:55;;;;;;;13.73;9.93;;;8.70;99.90;;;;;;5070566;28;20045;-72
2023/11/08 00:48:23;;;;;;;11.75;9.95;;;8.80;99.90;;;;;;5066867;28;20934;-71
2023/11/08 00:50:51;;;;;;;14.00;9.48;;;8.80;99.90;;;;;;5065862;28;20071;-71
2023/11/08 00:53:17;;;;;;;11.15;10.05;;;8.70;99.90;;;;;;5099392;28;20123;-71
2023/11/08 00:55:43;;;;;;;10.80;8.85;;;8.70;99.90;;;;;;5067104;28;20157;-71
2023/11/08 00:58:08;;;;;;;14.13;9.27;;;8.70;99.90;;;;;;5067373;28;20056;-71
2023/11/08 01:00:35;;;;;;;12.27;10.85;;;8.70;99.90;;;;;;5065920;28;20025;-71
2023/11/08 01:03:01;;;;;;;14.35;11.38;;;8.70;99.90;;;;;;5065965;28;20036;-71
2023/11/08 01:05:26;;;;;;;12.38;11.07;;;8.70;99.90;;;;;;5066570;28;20041;-71
2023/11/08 01:07:52;;;;;;;15.35;11.35;;;8.70;99.90;;;;;;5068468;28;20039;-71
2023/11/08 01:10:20;;;;;;;17.05;11.20;;;8.70;99.90;;;;;;5065098;28;20043;-71
2023/11/08 01:12:46;;;;;;;10.93;9.82;;;8.70;99.90;;;;;;5064571;28;20048;-71
2023/11/08 01:15:11;;;;;;;11.63;9.90;;;8.70;99.90;;;;;;5031571;28;1059235;-71
2023/11/08 01:17:37;;;;;;;12.40;9.80;;;8.70;99.90;;;;;;5069335;28;20051;-72
2023/11/08 01:20:04;;;;;;;13.20;10.40;;;8.70;99.90;;;;;;5066492;28;20160;-71
2023/11/08 01:22:29;;;;;;;11.93;10.13;;;8.70;99.90;;;;;;5067910;28;21007;-71
2023/11/08 01:24:55;;;;;;;13.35;9.88;;;8.70;99.90;;;;;;5067925;28;20131;-71
2023/11/08 01:27:21;;;;;;;10.02;8.98;;;8.70;99.90;;;;;;5068630;28;20075;-71
2023/11/08 01:29:46;;;;;;;12.25;9.15;;;8.70;99.90;;;;;;5066826;28;20032;-71
2023/11/08 01:32:12;;;;;;;14.57;10.23;;;8.70;99.90;;;;;;5064509;28;20090;-71
2023/11/08 01:34:38;;;;;;;15.30;9.48;;;8.70;99.90;;;;;;5066209;28;21436;-71
2023/11/08 01:37:04;;;;;;;10.20;8.85;;;8.70;99.90;;;;;;5068072;28;20029;-71
2023/11/08 01:39:30;;;;;;;11.35;9.05;;;8.70;99.90;;;;;;5064316;28;20486;-71
2023/11/08 01:41:56;;;;;;;11.40;8.90;;;8.70;99.90;;;;;;5067091;28;20090;-71
2023/11/08 01:44:30;;;;;;;12.95;8.77;;;8.70;99.90;;;;;;5067349;28;20035;-71
2023/11/08 01:46:57;;;;;;;10.40;9.20;;;8.60;99.90;;;;;;5065918;28;20044;-71
2023/11/08 01:49:25;;;;;;;11.02;9.93;;;8.60;99.90;;;;;;5069830;28;20045;-71
2023/11/08 01:51:51;;;;;;;11.27;9.45;;;8.70;99.90;;;;;;5068587;28;20507;-71
2023/11/08 01:54:19;;;;;;;12.10;9.73;;;8.60;99.90;;;;;;5066645;28;20032;-71
2023/11/08 01:56:48;;;;;;;12.50;10.38;;;8.60;99.90;;;;;;5067833;28;20536;-71
2023/11/08 01:59:16;;;;;;;15.82;10.48;;;8.60;99.90;;;;;;5069231;28;20045;-71
2023/11/08 02:01:42;;;;;;;13.10;10.95;;;8.60;99.90;;;;;;5065289;28;20040;-71
2023/11/08 02:04:07;;;;;;;12.23;10.60;;;8.60;99.90;;;;;;5099653;27;20090;-71
2023/11/08 02:06:34;;;;;;;13.23;10.48;;;8.90;99.90;;;;;;5065887;28;20434;-71
2023/11/08 02:09:00;;;;;;;11.02;9.93;;;8.90;99.90;;;;;;5064358;28;20045;-71
2023/11/08 02:11:28;;;;;;;12.68;10.13;;;8.60;99.90;;;;;;5067468;28;20025;-71
2023/11/08 02:13:54;;;;;;;11.57;9.73;;;8.60;99.90;;;;;;5063903;28;20037;-71
2023/11/08 02:16:20;;;;;;;14.32;9.98;;;8.60;99.90;;;;;;5066858;28;20082;-71
2023/11/08 02:18:45;;;;;;;11.05;8.52;;;8.50;99.90;;;;;;5068691;28;20143;-71
2023/11/08 02:21:14;;;;;;;13.38;8.95;;;8.60;99.90;;;;;;5065335;28;20117;-71
2023/11/08 02:23:40;;;;;;;10.30;8.48;;;8.50;99.90;;;;;;5064578;28;20474;-71
2023/11/08 02:26:06;;;;;;;14.05;8.57;;;8.50;99.90;;;;;;5068445;28;20043;-71
2023/11/08 02:28:32;;;;;;;13.38;8.38;;;8.50;99.90;;;;;;5097858;28;20078;-71
2023/11/08 02:30:58;;;;;;;9.90;7.85;;;8.50;99.90;;;;;;5064862;28;20044;-71
2023/11/08 02:33:25;;;;;;;10.13;7.78;;;8.50;99.90;;;;;;5099754;28;20090;-72
2023/11/08 02:35:51;;;;;;;8.38;6.93;;;8.50;99.90;;;;;;5067765;28;20039;-71
2023/11/08 02:38:18;;;;;;;9.85;7.85;;;8.50;99.90;;;;;;5065287;28;20036;-71
2023/11/08 02:40:44;;;;;;;8.32;6.88;;;8.40;99.90;;;;;;5068023;28;20390;-71
2023/11/08 02:43:10;;;;;;;11.70;7.25;;;8.50;99.90;;;;;;5068255;28;20044;-71
2023/11/08 02:45:36;;;;;;;10.40;7.32;;;8.50;99.90;;;;;;5068429;28;20047;-69
2023/11/08 02:48:02;;;;;;;9.40;6.90;;;8.40;99.90;;;;;;5067322;28;20410;-68
2023/11/08 02:50:28;;;;;;;10.63;6.90;;;8.40;99.90;;;;;;5068700;28;20037;-68
2023/11/08 02:52:55;;;;;;;13.45;7.68;;;8.30;99.90;;;;;;5063623;28;20048;-68
2023/11/08 02:55:21;;;;;;;8.93;6.47;;;8.40;99.90;;;;;;5068415;28;20402;-68
2023/11/08 02:57:47;;;;;;;7.65;6.40;;;8.40;99.90;;;;;;5063233;28;20044;-68
2023/11/08 03:00:14;;;;;;;10.73;6.85;;;8.40;99.90;;;;;;5066068;28;20036;-69
2023/11/08 03:02:41;;;;;;;8.57;6.60;;;8.40;99.90;;;;;;5078770;28;20110;-68
2023/11/08 03:05:09;;;;;;;12.20;7.38;;;8.50;99.90;;;;;;5066374;28;20051;-68
2023/11/08 03:07:35;;;;;;;9.18;7.30;;;8.50;99.90;;;;;;5066910;28;20040;-69
2023/11/08 03:10:04;;;;;;;10.60;7.45;;;9.00;99.90;;;;;;5066604;28;20033;-69
2023/11/08 03:12:30;;;;;;;7.68;6.18;;;8.50;99.90;;;;;;5065979;28;20098;-68
2023/11/08 03:14:55;;;;;;;9.07;6.90;;;8.40;99.90;;;;;;5068124;28;20610;-68
2023/11/08 03:17:21;;;;;;;7.95;6.28;;;8.50;99.90;;;;;;5067225;28;20056;-68
2023/11/08 03:19:47;;;;;;;10.43;6.53;;;8.50;99.90;;;;;;5060733;28;20054;-68
2023/11/08 03:22:13;;;;;;;9.57;6.95;;;8.40;99.90;;;;;;5067527;28;20041;-69
2023/11/08 03:24:40;;;;;;;9.50;6.43;;;8.50;99.90;;;;;;5065182;28;20051;-69
2023/11/08 03:27:06;;;;;;;11.75;7.00;;;8.50;99.90;;;;;;5065505;28;20052;-69
2023/11/08 03:29:31;;;;;;;8.07;7.05;;;8.50;99.90;;;;;;5065938;28;20378;-69
2023/11/08 03:31:58;;;;;;;9.73;7.20;;;8.50;99.90;;;;;;5064694;28;20093;-69
2023/11/08 03:34:27;;;;;;;9.75;6.78;;;8.50;99.90;;;;;;5065410;28;20040;-68
2023/11/08 03:36:53;;;;;;;8.20;6.78;;;8.50;99.90;;;;;;5064916;28;20024;-69
2023/11/08 03:39:19;;;;;;;8.15;7.35;;;8.50;99.90;;;;;;5064904;28;20127;-69
2023/11/08 03:41:45;;;;;;;8.55;7.32;;;8.50;99.90;;;;;;5066695;28;20182;-68
2023/11/08 03:44:11;;;;;;;8.73;6.80;;;8.60;99.90;;;;;;5069939;28;20447;-69
2023/11/08 03:46:36;;;;;;;12.02;8.25;;;8.50;99.90;;;;;;5064667;28;20106;-69
2023/11/08 03:49:03;;;;;;;9.43;7.05;;;8.40;99.90;;;;;;5063503;28;20048;-68
2023/11/08 03:51:29;;;;;;;9.55;7.47;;;8.40;99.90;;;;;;5068100;28;20121;-69
2023/11/08 03:53:55;;;;;;;10.05;7.47;;;8.70;99.90;;;;;;5067362;28;20036;-68
2023/11/08 03:56:21;;;;;;;9.48;7.22;;;8.40;99.90;;;;;;5066528;28;20040;-68
2023/11/08 03:58:47;;;;;;;9.85;7.75;;;8.40;99.90;;;;;;5067058;28;20054;-69
2023/11/08 04:01:12;;;;;;;9.43;7.60;;;8.40;99.90;;;;;;5068554;28;20471;-68
2023/11/08 04:03:38;;;;;;;7.40;6.60;;;8.40;99.90;;;;;;5069586;28;20040;-69
2023/11/08 04:06:04;;;;;;;12.15;8.50;;;8.30;99.90;;;;;;5068496;28;20139;-69
2023/11/08 04:08:31;;;;;;;11.35;7.63;;;8.30;99.90;;;;;;5067612;28;20040;-69
2023/11/08 04:10:57;;;;;;;12.90;8.18;;;8.30;99.90;;;;;;5068441;28;20479;-69
2023/11/08 04:13:22;;;;;;;11.00;7.78;;;8.30;99.90;;;;;;5071800;28;20036;-69
2023/11/08 04:15:48;;;;;;;9.05;7.00;;;8.30;99.90;;;;;;5068208;28;20067;-68
2023/11/08 04:18:14;;;;;;;10.88;8.07;;;8.30;99.90;;;;;;5069461;28;20075;-69
2023/11/08 04:20:39;;;;;;;11.02;8.13;;;8.30;99.90;;;;;;5100778;28;20052;-69
2023/11/08 04:23:05;;;;;;;11.82;8.00;;;8.30;99.90;;;;;;5068868;28;20041;-69
2023/11/08 04:25:31;;;;;;;10.07;6.97;;;8.30;99.90;;;;;;5070242;28;20036;-68
2023/11/08 04:27:57;;;;;;;10.70;7.10;;;8.30;99.90;;;;;;5067624;28;20044;-69
2023/11/08 04:30:23;;;;;;;11.77;8.23;;;8.30;99.90;;;;;;5066029;28;20049;-69
2023/11/08 04:32:48;;;;;;;9.00;6.88;;;8.20;99.90;;;;;;5067622;28;20040;-69
2023/11/08 04:35:17;;;;;;;6.93;6.18;;;8.20;99.90;;;;;;5069789;28;20037;-69
2023/11/08 04:37:43;;;;;;;10.55;6.85;;;8.20;99.90;;;;;;5067799;28;20131;-69
2023/11/08 04:40:11;;;;;;;10.38;6.78;;;8.10;99.90;;;;;;5068616;28;20477;-68
2023/11/08 04:42:37;;;;;;;10.30;7.05;;;8.10;99.90;;;;;;5071642;28;20115;-68
2023/11/08 04:45:03;;;;;;;9.57;7.18;;;8.10;99.90;;;;;;5069820;28;20455;-69
2023/11/08 04:47:28;;;;;;;9.38;6.93;;;8.10;99.90;;;;;;5067419;28;20703;-69
2023/11/08 04:49:54;;;;;;;11.65;8.40;;;8.10;99.90;;;;;;5068937;28;20043;-69
2023/11/08 04:52:20;;;;;;;11.18;8.30;;;8.10;99.90;;;;;;5068338;28;20079;-68
2023/11/08 04:54:47;;;;;;;13.35;8.32;;;8.10;99.90;;;;;;5070935;28;20036;-69
2023/11/08 04:57:16;;;;;;;9.68;8.55;;;8.10;99.90;;;;;;5066158;28;20051;-69
2023/11/08 04:59:49;;;;;;;10.68;9.50;;;8.10;99.90;;;;;;5067937;28;20029;-68
2023/11/08 05:02:16;;;;;;;12.70;10.10;;;8.10;99.90;;;;;;5067813;28;20114;-69
2023/11/08 05:04:43;;;;;;;19.52;10.63;;;8.10;99.90;;;;;;5052555;28;20123;-69
2023/11/08 05:07:09;;;;;;;10.52;9.25;;;8.20;99.90;;;;;;5067784;28;20056;-68
2023/11/08 05:09:41;;;;;;;12.55;9.90;;;8.10;99.90;;;;;;5064921;28;20040;-68
2023/11/08 05:12:11;;;;;;;11.98;10.43;;;8.20;99.90;;;;;;5070180;28;20183;-68
2023/11/08 05:14:37;;;;;;;14.00;11.23;;;8.20;99.90;;;;;;5097805;27;20044;-69
2023/11/08 05:17:04;;;;;;;16.30;11.10;;;8.20;99.90;;;;;;5069065;28;20046;-69
2023/11/08 05:19:30;;;;;;;17.27;12.45;;;8.20;99.90;;;;;;5069363;28;20037;-69
2023/11/08 05:21:56;;;;;;;15.68;13.27;;;8.30;99.90;;;;;;5067152;28;20032;-69
2023/11/08 05:24:22;;;;;;;23.27;14.85;;;8.30;99.90;;;;;;5068113;28;20127;-69
2023/11/08 05:26:48;;;;;;;19.60;14.68;;;8.30;99.90;;;;;;5067099;28;20052;-69
2023/11/08 05:29:14;;;;;;;17.73;14.60;;;8.30;99.90;;;;;;5069486;28;20036;-68
2023/11/08 05:31:40;;;;;;;19.67;16.20;;;8.40;99.90;;;;;;5066843;28;20028;-68
2023/11/08 05:34:07;;;;;;;25.52;16.77;;;8.40;99.90;;;;;;5064947;28;20042;-69
2023/11/08 05:36:33;;;;;;;20.40;17.02;;;8.50;99.90;;;;;;5067886;28;20032;-68
2023/11/08 05:38:58;;;;;;;19.52;16.80;;;8.50;99.90;;;;;;5067291;28;20046;-69
2023/11/08 05:41:24;;;;;;;23.58;18.17;;;8.50;99.90;;;;;;5068440;28;20032;-68
2023/11/08 05:43:52;;;;;;;28.10;17.67;;;8.60;99.90;;;;;;5070901;28;20395;-68
2023/11/08 05:46:18;;;;;;;24.02;17.40;;;8.60;99.90;;;;;;5069311;28;20044;-68
2023/11/08 05:48:43;;;;;;;22.73;17.77;;;8.70;99.90;;;;;;5080796;28;20479;-68
2023/11/08 05:51:09;;;;;;;21.80;17.33;;;8.60;99.90;;;;;;5066624;28;20032;-68
2023/11/08 05:53:37;;;;;;;25.02;19.88;;;8.60;99.90;;;;;;5082919;28;20076;-69
2023/11/08 05:56:03;;;;;;;24.85;17.83;;;8.60;99.90;;;;;;5070416;28;20036;-68
2023/11/08 05:58:28;;;;;;;25.67;18.52;;;8.60;99.90;;;;;;5067812;28;20036;-68
2023/11/08 06:00:54;;;;;;;26.17;18.00;;;8.60;99.90;;;;;;5068763;28;20039;-68
2023/11/08 06:03:19;;;;;;;25.60;17.73;;;8.70;99.90;;;;;;5047895;28;20093;-68
2023/11/08 06:05:45;;;;;;;21.83;18.02;;;8.70;99.90;;;;;;5068476;28;20044;-68
2023/11/08 06:08:12;;;;;;;25.70;19.23;;;8.70;99.90;;;;;;5068242;28;20182;-68
2023/11/08 06:10:38;;;;;;;20.00;17.45;;;8.80;99.90;;;;;;5066630;28;20071;-68
2023/11/08 06:13:03;;;;;;;30.77;19.83;;;8.80;99.90;;;;;;5066855;28;20076;-69
2023/11/08 06:15:29;;;;;;;24.75;18.33;;;8.70;99.90;;;;;;5068066;28;20479;-68
2023/11/08 06:17:55;;;;;;;23.45;17.73;;;8.70;99.90;;;;;;5064765;28;20028;-68
2023/11/08 06:20:21;;;;;;;24.17;19.45;;;8.70;99.90;;;;;;5065820;28;20040;-68
2023/11/08 06:22:47;;;;;;;28.40;19.40;;;8.80;99.90;;;;;;5063723;28;20403;-68
2023/11/08 06:25:13;;;;;;;25.77;18.80;;;8.80;99.90;;;;;;5065569;28;20052;-68
2023/11/08 06:27:39;;;;;;;23.15;18.67;;;8.90;99.90;;;;;;5064242;28;20032;-68
2023/11/08 06:30:04;;;;;;;22.88;18.50;;;8.90;99.90;;;;;;5065375;28;20043;-68
2023/11/08 06:32:30;;;;;;;21.83;17.08;;;8.80;99.90;;;;;;5063863;28;20063;-68
2023/11/08 06:35:00;;;;;;;25.73;18.33;;;8.90;99.90;;;;;;5061909;28;20044;-68
2023/11/08 06:37:27;;;;;;;23.10;17.63;;;8.90;99.90;;;;;;5063323;28;20379;-68
2023/11/08 06:39:53;;;;;;;19.75;17.70;;;9.00;99.90;;;;;;5067012;28;20194;-68
2023/11/08 06:42:18;;;;;;;19.55;17.23;;;8.90;99.90;;;;;;5066885;28;20526;-68
2023/11/08 06:44:44;;;;;;;21.23;17.10;;;8.90;99.90;;;;;;5066609;28;20032;-68
2023/11/08 06:47:11;;;;;;;23.70;18.33;;;8.90;99.90;;;;;;5065338;28;20040;-68
2023/11/08 06:49:37;;;;;;;28.42;17.48;;;8.90;99.90;;;;;;5096064;28;20083;-69
2023/11/08 06:52:03;;;;;;;21.13;16.90;;;8.80;99.90;;;;;;5066941;28;20040;-68
2023/11/08 06:54:30;;;;;;;20.48;16.70;;;8.90;99.90;;;;;;5047258;28;20494;-69
2023/11/08 06:56:56;;;;;;;25.33;16.95;;;8.90;99.90;;;;;;5096418;28;20500;-68
2023/11/08 06:59:22;;;;;;;22.05;17.42;;;8.90;99.90;;;;;;5092232;28;20060;-68
2023/11/08 07:01:48;;;;;;;20.15;17.02;;;8.90;99.90;;;;;;5064431;28;20398;-68
2023/11/08 07:04:14;;;;;;;19.60;16.23;;;8.90;99.90;;;;;;5065532;28;20056;-68
2023/11/08 07:06:40;;;;;;;21.13;16.63;;;8.90;99.90;;;;;;5064459;28;20045;-69
2023/11/08 07:09:07;;;;;;;20.40;16.92;;;9.00;99.90;;;;;;5064049;28;20506;-68
2023/11/08 07:11:34;;;;;;;24.88;16.63;;;8.90;99.90;;;;;;5068617;28;20029;-68
2023/11/08 07:13:59;;;;;;;20.17;17.20;;;8.90;99.90;;;;;;5062052;28;20049;-68
2023/11/08 07:16:26;;;;;;;19.60;16.42;;;8.90;99.90;;;;;;5065703;28;20075;-69
2023/11/08 07:18:51;;;;;;;21.17;16.75;;;8.90;99.90;;;;;;5061239;28;20605;-68
2023/11/08 07:21:18;;;;;;;22.33;16.52;;;9.00;99.90;;;;;;5069212;28;20036;-68
2023/11/08 07:23:44;;;;;;;17.35;15.05;;;9.30;99.90;;;;;;5068081;28;20040;-68
2023/11/08 07:26:09;;;;;;;20.88;16.05;;;9.00;99.90;;;;;;5069020;28;20131;-68
2023/11/08 07:28:35;;;;;;;22.30;16.83;;;9.00;99.90;;;;;;5080165;28;20055;-69
2023/11/08 07:31:01;;;;;;;24.55;16.77;;;9.10;99.90;;;;;;5067695;28;20032;-70
2023/11/08 07:33:26;;;;;;;20.70;15.13;;;9.00;99.90;;;;;;5066751;28;20189;-70
2023/11/08 07:35:52;;;;;;;23.45;17.52;;;9.00;99.90;;;;;;5074160;28;20456;-70
2023/11/08 07:38:17;;;;;;;23.98;17.50;;;9.00;99.90;;;;;;5068866;28;20036;-70
2023/11/08 07:40:44;;;;;;;20.80;15.95;;;9.00;99.90;;;;;;5070344;28;20139;-70
2023/11/08 07:43:09;;;;;;;21.92;16.70;;;9.00;99.90;;;;;;5068339;28;20067;-70
2023/11/08 07:45:35;;;;;;;22.95;17.13;;;9.00;99.90;;;;;;5069674;28;20044;-70
2023/11/08 07:48:03;;;;;;;22.73;15.48;;;9.10;99.90;;;;;;5072505;28;20036;-70
2023/11/08 07:50:28;;;;;;;19.05;15.30;;;9.10;99.90;;;;;;5067891;28;20403;-70
2023/11/08 07:52:54;;;;;;;20.20;15.05;;;9.10;99.90;;;;;;5070603;28;20033;-70
2023/11/08 07:55:20;;;;;;;17.80;14.27;;;9.10;99.90;;;;;;5065058;28;20090;-70
2023/11/08 07:57:46;;;;;;;18.63;14.05;;;9.10;99.90;;;;;;5066599;28;20208;-70
2023/11/08 08:00:14;;;;;;;18.08;13.48;;;9.20;99.90;;;;;;5067504;28;20067;-70
2023/11/08 08:02:41;;;;;;;20.25;13.70;;;9.20;99.90;;;;;;5069153;28;20448;-70
2023/11/08 08:05:09;;;;;;;18.17;13.15;;;9.20;99.90;;;;;;5099016;28;20041;-70
2023/11/08 08:07:35;;;;;;;18.17;13.25;;;9.20;99.90;;;;;;5095678;28;20059;-70
2023/11/08 08:10:00;;;;;;;14.90;12.00;;;9.20;99.90;;;;;;5068579;28;20040;-70
2023/11/08 08:12:27;;;;;;;15.20;11.63;;;9.20;99.90;;;;;;5068382;28;20036;-70
2023/11/08 08:14:52;;;;;;;19.38;11.02;;;9.20;99.90;;;;;;5068195;28;20043;-71
2023/11/08 08:17:19;;;;;;;15.15;10.60;;;9.20;99.90;;;;;;5066079;28;20045;-70
2023/11/08 08:19:46;;;;;;;12.73;11.35;;;9.20;99.90;;;;;;5067818;28;20032;-70
2023/11/08 08:22:14;;;;;;;13.15;10.25;;;9.20;99.90;;;;;;5068086;28;20040;-70
2023/11/08 08:24:40;;;;;;;17.92;10.25;;;9.30;99.90;;;;;;5068076;28;20044;-70
2023/11/08 08:27:05;;;;;;;17.25;9.98;;;9.30;99.90;;;;;;5069988;28;20294;-70
2023/11/08 08:29:31;;;;;;;14.52;8.93;;;9.40;99.90;;;;;;5096217;27;20132;-70
2023/11/08 08:31:57;;;;;;;10.68;7.85;;;9.40;99.90;;;;;;5064366;28;20116;-70
2023/11/08 08:34:23;;;;;;;12.32;7.68;;;9.50;99.90;;;;;;5066446;28;20482;-70
2023/11/08 08:36:48;;;;;;;14.70;7.63;;;9.50;99.90;;;;;;5053109;28;20135;-70
2023/11/08 08:39:16;;;;;;;10.90;7.15;;;9.50;99.90;;;;;;5101130;28;20385;-70
2023/11/08 08:41:45;;;;;;;9.32;6.93;;;9.50;99.90;;;;;;5065823;28;20048;-71
2023/11/08 08:44:12;;;;;;;14.45;7.43;;;9.60;99.90;;;;;;5066203;28;20095;-70
2023/11/08 08:46:37;;;;;;;10.95;7.55;;;9.50;99.90;;;;;;5067032;28;20115;-70
2023/11/08 08:49:03;;;;;;;10.10;6.90;;;9.50;99.90;;;;;;5071606;28;20126;-70
2023/11/08 08:51:29;;;;;;;17.25;7.20;;;9.60;99.90;;;;;;5070243;28;20044;-70
2023/11/08 08:53:55;;;;;;;11.10;6.40;;;9.60;99.90;;;;;;5069259;28;20576;-70
2023/11/08 08:56:21;;;;;;;11.65;6.35;;;9.60;99.90;;;;;;5069047;28;20169;-70
2023/11/08 08:58:47;;;;;;;12.20;6.22;;;9.60;99.90;;;;;;5070193;28;20052;-70
2023/11/08 09:01:18;;;;;;;7.80;6.15;;;9.60;99.90;;;;;;5067818;28;20032;-70
2023/11/08 09:03:44;;;;;;;10.88;5.03;;;9.60;99.90;;;;;;5068412;28;20041;-70
2023/11/08 09:06:09;;;;;;;11.60;5.75;;;9.60;99.90;;;;;;5069959;28;20063;-70
2023/11/08 09:08:35;;;;;;;10.20;5.47;;;9.60;99.90;;;;;;5065792;28;20494;-70
2023/11/08 09:11:01;;;;;;;11.77;5.15;;;9.60;99.90;;;;;;5071252;28;20128;-70
2023/11/08 09:13:27;;;;;;;10.07;4.32;;;9.70;99.90;;;;;;5067497;28;20051;-70
2023/11/08 09:15:53;;;;;;;12.10;4.88;;;9.70;99.90;;;;;;5063216;28;20043;-70
2023/11/08 09:18:18;;;;;;;8.25;5.00;;;9.70;99.90;;;;;;5069551;28;20047;-70
2023/11/08 09:20:44;;;;;;;10.73;5.93;;;9.90;99.90;;;;;;5070136;28;20040;-70
2023/11/08 09:23:10;;;;;;;14.13;5.22;;;9.90;99.90;;;;;;5068030;28;20075;-70
2023/11/08 09:25:35;;;;;;;10.55;6.10;;;10.00;99.90;;;;;;5070904;28;20063;-71
2023/11/08 09:28:01;;;;;;;7.20;3.85;;;10.00;99.90;;;;;;5069498;28;20051;-70
2023/11/08 09:30:27;;;;;;;15.25;5.22;;;10.00;99.90;;;;;;5066361;28;20040;-70
2023/11/08 09:32:54;;;;;;;7.65;3.35;;;10.10;99.90;;;;;;5065868;28;20040;-70
2023/11/08 09:35:21;;;;;;;7.85;3.38;;;10.10;99.90;;;;;;5066709;28;20056;-70
2023/11/08 09:37:47;;;;;;;8.18;3.72;;;10.10;99.90;;;;;;5065485;28;20041;-70
2023/11/08 09:40:15;;;;;;;8.73;3.50;;;10.20;99.90;;;;;;5067252;28;20410;-70
2023/11/08 09:42:40;;;;;;;6.10;2.60;;;10.30;99.90;;;;;;5064491;28;20097;-70
2023/11/08 09:45:09;;;;;;;9.48;3.58;;;10.30;99.90;;;;;;5065282;28;20044;-70
2023/11/08 09:47:37;;;;;;;6.55;2.75;;;10.30;99.90;;;;;;5048707;28;20517;-70
2023/11/08 09:50:08;;;;;;;7.60;2.65;;;10.30;99.90;;;;;;5064282;28;20044;-70
2023/11/08 09:52:34;;;;;;;7.18;2.70;;;10.20;99.90;;;;;;5061751;28;20098;-70
2023/11/08 09:55:00;;;;;;;5.60;2.17;;;10.30;99.90;;;;;;5066257;28;20071;-70
2023/11/08 09:57:27;;;;;;;5.07;2.75;;;10.30;99.90;;;;;;5067496;28;20090;-70
2023/11/08 09:59:55;;;;;;;9.45;2.40;;;10.40;99.90;;;;;;5065374;28;20157;-70
2023/11/08 10:02:22;;;;;;;4.57;2.20;;;10.50;99.90;;;;;;5066700;28;20465;-70
2023/11/08 10:04:48;;;;;;;5.15;1.90;;;10.50;99.90;;;;;;5063180;28;20040;-70
2023/11/08 10:07:14;;;;;;;5.50;2.17;;;10.50;99.90;;;;;;5067628;28;20487;-70
2023/11/08 10:09:40;;;;;;;5.50;1.58;;;10.60;99.90;;;;;;5065149;28;20066;-70
2023/11/08 10:12:08;;;;;;;5.57;1.58;;;10.60;99.90;;;;;;5066035;28;20037;-70
2023/11/08 10:14:44;;;;;;;5.05;1.55;;;10.70;99.90;;;;;;5062960;28;20595;-70
2023/11/08 10:17:09;;;;;;;7.32;1.60;;;10.80;99.90;;;;;;5094316;28;20048;-70
2023/11/08 10:19:45;;;;;;;7.82;1.73;;;10.80;99.90;;;;;;5066355;28;20474;-70
2023/11/08 10:22:18;;;;;;;;;;;10.80;99.90;;;;;;5066025;28;20044;-70
2023/11/08 10:24:57;;;;;;;6.93;1.40;;;10.80;99.90;;;;;;5058148;28;19920;-70
2023/11/08 10:27:24;;;;;;;5.78;1.30;;;10.80;99.90;;;;;;5062663;28;20066;-70
2023/11/08 10:29:51;;;;;;;3.10;1.38;;;10.80;99.90;;;;;;5067033;28;20455;-70
2023/11/08 10:32:19;;;;;;;6.95;1.25;;;10.90;99.90;;;;;;5065565;28;20041;-70
2023/11/08 10:34:45;;;;;;;5.47;1.52;;;11.10;99.90;;;;;;5090719;28;20117;-70
2023/11/08 10:37:25;;;;;;;6.47;1.75;;;10.90;99.90;;;;;;5059676;28;20494;-70
2023/11/08 10:39:56;;;;;;;7.30;1.38;;;11.00;99.90;;;;;;5092731;28;20559;-70
2023/11/08 10:42:24;;;;;;;4.15;1.17;;;11.30;99.90;;;;;;5057758;28;20215;-70
2023/11/08 10:44:51;;;;;;;4.95;1.05;;;11.20;99.90;;;;;;5093149;28;20044;-70
2023/11/08 10:47:17;;;;;;;5.88;1.42;;;11.10;99.90;;;;;;5067515;28;20119;-70
2023/11/08 10:49:50;;;;;;;4.20;1.45;;;11.20;99.90;;;;;;5065565;28;20508;-70
2023/11/08 10:52:18;;;;;;;4.03;1.40;;;11.30;99.90;;;;;;5067777;28;20036;-70
2023/11/08 10:54:44;;;;;;;3.28;0.88;;;11.30;99.90;;;;;;5064434;28;20402;-70
2023/11/08 10:57:13;;;;;;;5.88;0.88;;;11.40;99.90;;;;;;5064175;28;20094;-70
2023/11/08 10:59:42;;;;;;;3.67;0.80;;;11.50;99.90;;;;;;5066776;28;20048;-70
2023/11/08 11:02:47;;;;;;;4.47;0.88;;;11.50;99.90;;;;;;5096339;28;20052;-70
2023/11/08 11:05:22;;;;;;;2.80;0.70;;;11.60;99.90;;;;;;5063534;28;20568;-70
2023/11/08 11:07:48;;;;;;;;;;;11.60;99.90;;;;;;5069550;28;20052;-70
2023/11/08 11:10:15;;;;;;;4.00;0.65;;;12.20;99.90;;;;;;5070647;28;20610;-70
2023/11/08 11:12:47;;;;;;;2.22;0.52;;;11.70;99.90;;;;;;5066999;28;20084;-70
2023/11/08 11:15:38;;;;;;;1.70;0.82;;;11.70;99.90;;;;;;5081903;28;20138;-70
2023/11/08 11:18:08;;;;;;;2.92;0.77;;;11.80;99.90;;;;;;5069286;28;20066;-70
2023/11/08 11:20:39;;;;;;;3.35;0.80;;;11.80;99.90;;;;;;5052040;28;20036;-70
2023/11/08 11:23:34;;;;;;;2.00;0.82;;;11.80;99.90;;;;;;5069350;28;20506;-70
2023/11/08 11:26:01;;;;;;;2.80;0.88;;;11.80;99.90;;;;;;5068912;28;20048;-70
2023/11/08 11:28:52;;;;;;;3.50;0.90;;;12.00;99.90;;;;;;5068314;28;20041;-70
2023/11/08 11:31:43;;;;;;;4.65;1.10;;;11.60;99.90;;;;;;5066482;28;20495;-70
2023/11/08 11:34:29;;;;;;;2.53;0.80;;;11.50;99.90;;;;;;5067379;28;20098;-70
2023/11/08 11:37:10;;;;;;;4.45;0.98;;;11.30;99.90;;;;;;5069363;28;20032;-70
2023/11/08 11:39:38;;;;;;;3.55;0.77;;;11.30;99.90;;;;;;5082617;28;20056;-70
2023/11/08 11:42:05;;;;;;;3.92;0.68;;;11.20;99.90;;;;;;5100655;28;20499;-70
2023/11/08 11:44:51;;;;;;;5.05;1.52;;;11.30;99.90;;;;;;5065923;28;20068;-70
2023/11/08 11:47:28;;;;;;;4.75;1.02;;;11.20;99.90;;;;;;5069268;28;20052;-70
2023/11/08 11:50:01;;;;;;;2.72;1.17;;;11.20;99.90;;;;;;5066478;28;20482;-70
2023/11/08 11:52:28;;;;;;;4.53;1.20;;;11.10;99.90;;;;;;5064026;28;20568;-70
2023/11/08 11:54:55;;;;;;;3.33;1.00;;;11.00;99.90;;;;;;5065374;28;20094;-70
2023/11/08 11:57:24;;;;;;;2.55;0.85;;;11.00;99.90;;;;;;5067155;28;20044;-70
2023/11/08 12:00:13;;;;;;;3.90;1.13;;;10.90;99.90;;;;;;5066789;28;20048;-70
2023/11/08 12:02:39;;;;;;;5.80;1.58;;;10.90;99.90;;;;;;5068969;28;20601;-70
2023/11/08 12:05:06;;;;;;;4.00;1.40;;;10.90;99.90;;;;;;5065191;28;20040;-70
2023/11/08 12:07:32;;;;;;;6.60;1.50;;;10.80;99.90;;;;;;5050127;28;20036;-70
2023/11/08 12:10:07;;;;;;;5.35;1.20;;;10.80;99.90;;;;;;5065786;28;20543;-70
2023/11/08 12:12:35;;;;;;;2.95;1.00;;;10.80;99.90;;;;;;5069544;28;20036;-70
2023/11/08 12:15:20;;;;;;;7.75;1.67;;;10.80;99.90;;;;;;5067508;28;20051;-70
2023/11/08 12:17:51;;;;;;;5.95;1.45;;;10.70;99.90;;;;;;5082365;28;20041;-70
2023/11/08 12:20:20;;;;;;;5.05;1.63;;;10.70;99.90;;;;;;5069280;28;20162;-70
2023/11/08 12:22:50;;;;;;;4.38;1.60;;;10.90;99.90;;;;;;5067085;28;20123;-70
2023/11/08 12:25:22;;;;;;;7.03;1.90;;;10.70;99.90;;;;;;5066259;28;20436;-70
2023/11/08 12:27:55;;;;;;;4.03;1.60;;;10.80;99.90;;;;;;5070416;28;20040;-70
2023/11/08 12:30:23;;;;;;;5.68;1.38;;;10.80;99.90;;;;;;5066691;28;20438;-70
2023/11/08 12:32:49;;;;;;;5.18;1.20;;;10.90;99.90;;;;;;5068695;28;20705;-70
2023/11/08 12:35:17;;;;;;;7.97;1.98;;;11.00;99.90;;;;;;5065057;28;20043;-70
2023/11/08 12:37:44;;;;;;;5.97;1.67;;;11.20;99.90;;;;;;5066974;28;20033;-70
2023/11/08 12:40:21;;;;;;;8.68;1.88;;;11.40;99.90;;;;;;5092294;28;20631;-70
2023/11/08 12:42:47;;;;;;;3.53;1.13;;;11.40;99.90;;;;;;5062893;28;20395;-70
2023/11/08 12:45:30;;;;;;;3.95;1.60;;;11.40;99.90;;;;;;5063633;28;20541;-70
2023/11/08 12:48:07;;;;;;;8.10;2.15;;;11.40;99.90;;;;;;5061469;28;20064;-70